Time;durP1;ratioP1;P1;durP2;ratioP2;P2;SDS_P1;SDS_P2;PMS_P1;PMS_P2;Temp;Humidity;BMP_temperature;BMP_pressure;BME280_temperature;BME280_humidity;BME280_pressure;Samples;Min_cycle;Max_cycle;Signal;HPM_P1;HPM_P2
2021/11/15 00:00:54;;;;;;;58.33;23.77;;;;;;;;;;5117985;28;20439;-73
2021/11/15 00:03:23;;;;;;;48.60;21.77;;;;;;;;;;5118448;28;20813;-73
2021/11/15 00:05:51;;;;;;;60.60;22.40;;;;;;;;;;5119286;28;20525;-72
2021/11/15 00:08:18;;;;;;;43.23;19.93;;;;;;;;;;5119017;28;20462;-72
2021/11/15 00:10:46;;;;;;;62.73;25.03;;;;;;;;;;5120119;28;20446;-72
2021/11/15 00:13:17;;;;;;;45.77;20.83;;;;;;;;;;5118973;28;20726;-72
2021/11/15 00:15:47;;;;;;;48.70;21.90;;;;;;;;;;5119656;28;20489;-72
2021/11/15 00:18:15;;;;;;;53.13;22.40;;;;;;;;;;5118520;28;20482;-73
2021/11/15 00:20:43;;;;;;;53.70;21.87;;;;;;;;;;5118025;28;20469;-74
2021/11/15 00:23:13;;;;;;;46.70;20.03;;;;;;;;;;5118534;28;20547;-73
2021/11/15 00:25:42;;;;;;;62.63;23.20;;;;;;;;;;5117934;28;20561;-72
2021/11/15 00:28:10;;;;;;;52.23;21.63;;;;;;;;;;5118152;28;20905;-73
2021/11/15 00:30:39;;;;;;;41.87;19.40;;;;;;;;;;5118390;28;20454;-72
2021/11/15 00:33:07;;;;;;;54.90;20.70;;;;;;;;;;5117983;28;20490;-73
2021/11/15 00:35:35;;;;;;;43.80;23.03;;;;;;;;;;5117942;28;20484;-73
2021/11/15 00:38:03;;;;;;;50.50;23.00;;;;;;;;;;5117609;28;20474;-72
2021/11/15 00:40:30;;;;;;;47.13;19.53;;;;;;;;;;5118178;28;20477;-73
2021/11/15 00:42:58;;;;;;;55.47;23.40;;;;;;;;;;5117941;28;20447;-73
2021/11/15 00:45:26;;;;;;;53.47;21.37;;;;;;;;;;5117573;28;20477;-73
2021/11/15 00:47:55;;;;;;;50.40;22.10;;;;;;;;;;5117795;28;20609;-72
2021/11/15 00:50:23;;;;;;;52.00;20.37;;;;;;;;;;5117553;28;20726;-73
2021/11/15 00:52:52;;;;;;;50.47;21.90;;;;;;;;;;5117946;28;20467;-73
2021/11/15 00:55:20;;;;;;;57.47;23.60;;;;;;;;;;5117432;28;20565;-73
2021/11/15 00:57:48;;;;;;;56.60;22.00;;;;;;;;;;5117300;28;20521;-72
2021/11/15 01:00:18;;;;;;;51.00;19.10;;;;;;;;;;5117135;28;20780;-73
2021/11/15 01:02:46;;;;;;;51.90;24.17;;;;;;;;;;5117250;28;20516;-73
2021/11/15 01:05:15;;;;;;;56.87;22.33;;;;;;;;;;5117758;28;20462;-73
2021/11/15 01:07:43;;;;;;;55.23;24.17;;;;;;;;;;5116809;28;20443;-73
2021/11/15 01:10:11;;;;;;;50.10;20.27;;;;;;;;;;5118080;28;20923;-73
2021/11/15 01:12:42;;;;;;;58.03;20.87;;;;;;;;;;5117792;28;20852;-73
2021/11/15 01:15:11;;;;;;;47.63;20.80;;;;;;;;;;5117746;28;20870;-73
2021/11/15 01:17:38;;;;;;;44.63;18.60;;;;;;;;;;5117595;28;20478;-73
2021/11/15 01:20:11;;;;;;;56.17;21.50;;;;;;;;;;5116895;28;20457;-73
2021/11/15 01:22:40;;;;;;;45.03;20.47;;;;;;;;;;5118015;28;20447;-72
2021/11/15 01:25:08;;;;;;;48.03;23.33;;;;;;;;;;5117470;28;20462;-73
2021/11/15 01:27:36;;;;;;;49.17;19.93;;;;;;;;;;5117418;28;20453;-73
2021/11/15 01:30:04;;;;;;;48.10;21.53;;;;;;;;;;5117920;28;20814;-73
2021/11/15 01:32:32;;;;;;;54.80;23.93;;;;;;;;;;5117798;28;20457;-73
2021/11/15 01:35:00;;;;;;;56.23;23.20;;;;;;;;;;5116845;28;20547;-72
2021/11/15 01:37:27;;;;;;;53.73;21.80;;;;;;;;;;5117034;28;20479;-73
2021/11/15 01:39:57;;;;;;;60.80;25.10;;;;;;;;;;5117161;28;20524;-72
2021/11/15 01:42:25;;;;;;;49.33;22.73;;;;;;;;;;5116711;28;20458;-72
2021/11/15 01:44:52;;;;;;;49.63;23.37;;;;;;;;;;5116641;28;20447;-72
2021/11/15 01:47:20;;;;;;;54.03;22.53;;;;;;;;;;5116863;28;20461;-72
2021/11/15 01:49:48;;;;;;;55.00;21.93;;;;;;;;;;5116190;28;20457;-72
2021/11/15 01:52:16;;;;;;;54.07;23.93;;;;;;;;;;5116654;28;20541;-72
2021/11/15 01:54:43;;;;;;;47.70;21.20;;;;;;;;;;5116618;28;20455;-72
2021/11/15 01:57:14;;;;;;;51.50;23.30;;;;;;;;;;5118582;28;20461;-72
2021/11/15 01:59:41;;;;;;;46.43;22.30;;;;;;;;;;5120681;28;20451;-72
2021/11/15 02:02:09;;;;;;;43.83;22.10;;;;;;;;;;5121374;28;20470;-72
2021/11/15 02:04:37;;;;;;;44.50;21.33;;;;;;;;;;5120624;28;20442;-72
2021/11/15 02:07:05;;;;;;;44.03;18.80;;;;;;;;;;5120956;28;20458;-72
2021/11/15 02:09:33;;;;;;;39.67;20.37;;;;;;;;;;5120859;28;20461;-72
2021/11/15 02:12:01;;;;;;;53.40;21.63;;;;;;;;;;5120424;28;20459;-72
2021/11/15 02:14:33;;;;;;;56.83;20.97;;;;;;;;;;5120891;28;20538;-72
2021/11/15 02:17:01;;;;;;;44.30;20.17;;;;;;;;;;5120882;28;20532;-72
2021/11/15 02:19:29;;;;;;;50.83;20.70;;;;;;;;;;5121231;28;20454;-72
2021/11/15 02:21:59;;;;;;;51.20;21.30;;;;;;;;;;5120484;28;20537;-72
2021/11/15 02:24:27;;;;;;;51.97;21.30;;;;;;;;;;5119972;28;20626;-72
2021/11/15 02:26:54;;;;;;;47.13;22.63;;;;;;;;;;5120525;28;20478;-72
2021/11/15 02:29:22;;;;;;;46.93;20.30;;;;;;;;;;5119573;28;20453;-72
2021/11/15 02:31:49;;;;;;;54.23;22.10;;;;;;;;;;5120222;28;20454;-72
2021/11/15 02:34:17;;;;;;;49.67;23.73;;;;;;;;;;5119964;28;20447;-72
2021/11/15 02:36:45;;;;;;;44.57;21.70;;;;;;;;;;5119901;28;20698;-72
2021/11/15 02:39:14;;;;;;;45.50;21.67;;;;;;;;;;5120185;28;20765;-72
2021/11/15 02:41:41;;;;;;;55.77;22.80;;;;;;;;;;5120788;28;20498;-72
2021/11/15 02:44:12;;;;;;;51.47;20.87;;;;;;;;;;5119876;28;20450;-72
2021/11/15 02:46:40;;;;;;;48.27;21.00;;;;;;;;;;5120604;28;20566;-72
2021/11/15 02:49:08;;;;;;;56.73;24.63;;;;;;;;;;5120087;28;20836;-72
2021/11/15 02:51:36;;;;;;;50.53;22.50;;;;;;;;;;5120128;28;20490;-72
2021/11/15 02:54:03;;;;;;;51.00;21.67;;;;;;;;;;5120570;28;20449;-72
2021/11/15 02:56:32;;;;;;;52.37;22.77;;;;;;;;;;5119777;28;20459;-72
2021/11/15 02:59:00;;;;;;;40.20;19.70;;;;;;;;;;5120116;28;20749;-72
2021/11/15 03:01:30;;;;;;;43.80;20.03;;;;;;;;;;5119430;28;20451;-72
2021/11/15 03:03:57;;;;;;;44.50;22.30;;;;;;;;;;5119943;28;20442;-72
2021/11/15 03:06:25;;;;;;;43.90;19.50;;;;;;;;;;5119751;28;20784;-72
2021/11/15 03:08:54;;;;;;;44.50;21.73;;;;;;;;;;5120517;28;20482;-75
2021/11/15 03:11:22;;;;;;;49.80;21.80;;;;;;;;;;5121522;28;20521;-72
2021/11/15 03:13:54;;;;;;;47.50;21.80;;;;;;;;;;5121508;28;20450;-72
2021/11/15 03:16:25;;;;;;;45.93;21.50;;;;;;;;;;5119452;28;20466;-72
2021/11/15 03:18:52;;;;;;;41.53;18.97;;;;;;;;;;5119563;28;20535;-72
2021/11/15 03:21:21;;;;;;;52.13;21.33;;;;;;;;;;5119966;28;20454;-72
2021/11/15 03:23:52;;;;;;;42.27;21.67;;;;;;;;;;5120349;28;20527;-72
2021/11/15 03:26:21;;;;;;;47.93;20.67;;;;;;;;;;5121076;28;20459;-72
2021/11/15 03:28:49;;;;;;;46.47;21.10;;;;;;;;;;5119492;28;20443;-72
2021/11/15 03:31:19;;;;;;;56.70;21.90;;;;;;;;;;5119462;28;20477;-72
2021/11/15 03:33:48;;;;;;;49.23;20.60;;;;;;;;;;5118842;28;20486;-72
2021/11/15 03:36:15;;;;;;;44.80;20.13;;;;;;;;;;5119230;28;20471;-72
2021/11/15 03:38:44;;;;;;;45.67;19.77;;;;;;;;;;5118871;28;20486;-72
2021/11/15 03:41:12;;;;;;;42.50;22.43;;;;;;;;;;5120168;28;20455;-72
2021/11/15 03:43:40;;;;;;;44.93;21.10;;;;;;;;;;5119190;28;20446;-72
2021/11/15 03:46:07;;;;;;;49.60;22.97;;;;;;;;;;5119351;28;20464;-72
2021/11/15 03:48:37;;;;;;;41.07;19.27;;;;;;;;;;5119011;28;20452;-72
2021/11/15 03:51:07;;;;;;;43.70;21.73;;;;;;;;;;5118899;28;20523;-72
2021/11/15 03:53:36;;;;;;;41.87;20.23;;;;;;;;;;5119249;28;20522;-72
2021/11/15 03:56:04;;;;;;;44.33;19.37;;;;;;;;;;5118746;28;20462;-72
2021/11/15 03:58:32;;;;;;;48.93;20.77;;;;;;;;;;5118800;28;20490;-73
2021/11/15 04:01:02;;;;;;;33.10;20.57;;;;;;;;;;5118721;28;20497;-73
2021/11/15 04:03:32;;;;;;;43.10;20.90;;;;;;;;;;5118900;28;20438;-73
2021/11/15 04:06:03;;;;;;;43.77;19.10;;;;;;;;;;5118147;28;20542;-73
2021/11/15 04:08:31;;;;;;;37.93;19.33;;;;;;;;;;5118181;28;20996;-73
2021/11/15 04:11:00;;;;;;;43.90;20.93;;;;;;;;;;5118724;28;20458;-73
2021/11/15 04:13:28;;;;;;;48.37;23.17;;;;;;;;;;5118505;28;20462;-73
2021/11/15 04:15:58;;;;;;;44.03;18.70;;;;;;;;;;5118319;28;20523;-73
2021/11/15 04:18:27;;;;;;;40.13;20.17;;;;;;;;;;5117567;28;20486;-73
2021/11/15 04:20:55;;;;;;;45.50;21.27;;;;;;;;;;5117566;28;20455;-73
2021/11/15 04:23:24;;;;;;;36.40;21.07;;;;;;;;;;5118185;28;20447;-73
2021/11/15 04:25:52;;;;;;;41.53;19.07;;;;;;;;;;5117439;28;20447;-73
2021/11/15 04:28:20;;;;;;;48.93;23.97;;;;;;;;;;5118520;28;20481;-73
2021/11/15 04:30:47;;;;;;;40.97;21.33;;;;;;;;;;5116755;28;20462;-73
2021/11/15 04:33:15;;;;;;;47.80;22.23;;;;;;;;;;5119249;28;20932;-72
2021/11/15 04:35:43;;;;;;;49.20;21.27;;;;;;;;;;5119169;28;20458;-72
2021/11/15 04:38:11;;;;;;;46.67;22.27;;;;;;;;;;5118213;28;20479;-72
2021/11/15 04:40:40;;;;;;;45.70;20.53;;;;;;;;;;5118844;28;20457;-73
2021/11/15 04:43:08;;;;;;;42.33;17.57;;;;;;;;;;5118346;28;20462;-72
2021/11/15 04:45:36;;;;;;;44.40;18.47;;;;;;;;;;5118645;28;20987;-73
2021/11/15 04:48:05;;;;;;;43.07;19.63;;;;;;;;;;5119105;28;20866;-73
2021/11/15 04:50:33;;;;;;;46.03;19.43;;;;;;;;;;5118160;28;20451;-72
2021/11/15 04:53:01;;;;;;;38.47;20.83;;;;;;;;;;5118679;28;20447;-72
2021/11/15 04:55:29;;;;;;;36.47;19.80;;;;;;;;;;5117332;28;20465;-72
2021/11/15 04:57:58;;;;;;;38.67;18.33;;;;;;;;;;5118512;28;20724;-73
2021/11/15 05:00:28;;;;;;;39.47;18.37;;;;;;;;;;5118143;28;20439;-73
2021/11/15 05:02:59;;;;;;;42.37;19.13;;;;;;;;;;5118557;28;20447;-73
2021/11/15 05:05:38;;;;;;;44.23;18.50;;;;;;;;;;5117045;28;20462;-73
2021/11/15 05:08:06;;;;;;;42.70;19.00;;;;;;;;;;5116024;28;20484;-72
2021/11/15 05:10:41;;;;;;;48.87;22.53;;;;;;;;;;5116594;28;20895;-72
2021/11/15 05:13:13;;;;;;;37.27;19.00;;;;;;;;;;5117356;28;20553;-72
2021/11/15 05:15:41;;;;;;;45.97;19.60;;;;;;;;;;5116622;28;20558;-72
2021/11/15 05:18:09;;;;;;;43.37;20.03;;;;;;;;;;5117048;28;20862;-72
2021/11/15 05:20:37;;;;;;;42.17;21.90;;;;;;;;;;5117010;28;20513;-71
2021/11/15 05:23:05;;;;;;;49.27;21.90;;;;;;;;;;5117650;28;20461;-72
2021/11/15 05:28:19;;;;;;;44.13;20.67;;;;;;;;;;5116022;28;20550;-73
2021/11/15 05:30:47;;;;;;;44.10;18.47;;;;;;;;;;5117887;28;20446;-72
2021/11/15 05:33:15;;;;;;;31.73;17.73;;;;;;;;;;5117648;28;20487;-72
2021/11/15 05:35:43;;;;;;;38.77;18.03;;;;;;;;;;5117079;28;20517;-73
2021/11/15 05:38:11;;;;;;;41.83;17.87;;;;;;;;;;5116498;28;20580;-73
2021/11/15 05:40:39;;;;;;;41.13;20.80;;;;;;;;;;5116847;28;20456;-72
2021/11/15 05:43:06;;;;;;;40.50;19.90;;;;;;;;;;5116319;28;20458;-72
2021/11/15 05:45:35;;;;;;;42.07;19.80;;;;;;;;;;5116161;28;20879;-71
2021/11/15 05:48:06;;;;;;;37.10;18.07;;;;;;;;;;5116678;28;20842;-72
2021/11/15 05:50:37;;;;;;;40.30;18.23;;;;;;;;;;5116392;28;20447;-73
2021/11/15 05:53:04;;;;;;;39.67;18.13;;;;;;;;;;5116722;28;20450;-73
2021/11/15 05:55:33;;;;;;;43.43;17.50;;;;;;;;;;5117315;28;20449;-73
2021/11/15 05:58:00;;;;;;;34.40;18.97;;;;;;;;;;5115809;28;20529;-73
2021/11/15 06:00:29;;;;;;;36.40;18.87;;;;;;;;;;5116034;28;20479;-72
2021/11/15 06:02:58;;;;;;;40.70;17.43;;;;;;;;;;5115073;28;20528;-72
2021/11/15 06:05:30;;;;;;;46.70;19.57;;;;;;;;;;5114977;28;20443;-72
2021/11/15 06:07:58;;;;;;;39.37;19.57;;;;;;;;;;5107767;28;20460;-72
2021/11/15 06:10:26;;;;;;;46.07;22.07;;;;;;;;;;5093767;28;20450;-72
2021/11/15 06:12:54;;;;;;;40.30;18.97;;;;;;;;;;5095721;28;20491;-73
2021/11/15 06:15:22;;;;;;;48.17;21.40;;;;;;;;;;5094324;28;20443;-72
2021/11/15 06:17:50;;;;;;;38.10;16.90;;;;;;;;;;5094473;28;20476;-72
2021/11/15 06:20:19;;;;;;;40.60;17.77;;;;;;;;;;5092831;28;20503;-73
2021/11/15 06:22:47;;;;;;;39.20;19.30;;;;;;;;;;5093276;28;20465;-73
2021/11/15 06:25:17;;;;;;;42.97;20.90;;;;;;;;;;5092859;28;20447;-73
2021/11/15 06:27:53;;;;;;;36.27;18.37;;;;;;;;;;5091778;28;20958;-72
2021/11/15 06:30:22;;;;;;;46.23;20.60;;;;;;;;;;5080299;28;20917;-73
2021/11/15 06:32:51;;;;;;;31.60;17.30;;;;;;;;;;5079545;28;20472;-73
2021/11/15 06:35:27;;;;;;;44.17;20.63;;;;;;;;;;5072902;28;20457;-73
2021/11/15 06:37:55;;;;;;;40.97;20.17;;;;;;;;;;5073314;28;20761;-72
2021/11/15 06:40:22;;;;;;;48.10;24.77;;;;;;;;;;5072816;28;20924;-73
2021/11/15 06:42:52;;;;;;;33.43;16.20;;;;;;;;;;5074084;28;20501;-73
2021/11/15 06:45:20;;;;;;;39.93;19.90;;;;;;;;;;5076479;28;20449;-73
2021/11/15 06:47:49;;;;;;;31.83;17.70;;;;;;;;;;5092227;28;20447;-72
2021/11/15 06:50:21;;;;;;;41.60;20.77;;;;;;;;;;5079928;28;20448;-73
2021/11/15 06:52:51;;;;;;;36.27;18.30;;;;;;;;;;5075535;28;20454;-72
2021/11/15 06:55:20;;;;;;;41.93;19.10;;;;;;;;;;5077117;28;20550;-73
2021/11/15 06:57:48;;;;;;;40.30;19.87;;;;;;;;;;5074595;28;20565;-72
2021/11/15 07:00:18;;;;;;;41.10;20.97;;;;;;;;;;5075720;28;20479;-71
2021/11/15 07:02:47;;;;;;;39.80;20.37;;;;;;;;;;5075736;28;20479;-72
2021/11/15 07:05:15;;;;;;;41.40;20.30;;;;;;;;;;5077250;28;20511;-72
2021/11/15 07:07:43;;;;;;;39.80;21.67;;;;;;;;;;5077113;28;20740;-73
2021/11/15 07:10:14;;;;;;;40.73;20.60;;;;;;;;;;5075964;28;20517;-71
2021/11/15 07:12:42;;;;;;;40.50;20.37;;;;;;;;;;5079737;28;20459;-73
2021/11/15 07:15:12;;;;;;;38.47;18.80;;;;;;;;;;5076574;28;20474;-71
2021/11/15 07:17:40;;;;;;;39.53;18.50;;;;;;;;;;5076759;28;20631;-73
2021/11/15 07:20:09;;;;;;;41.83;20.90;;;;;;;;;;5082612;28;21129;-72
2021/11/15 07:22:37;;;;;;;49.40;20.40;;;;;;;;;;5076708;28;20715;-72
2021/11/15 07:25:05;;;;;;;52.57;20.17;;;;;;;;;;5076688;28;20451;-72
2021/11/15 07:27:35;;;;;;;42.17;18.70;;;;;;;;;;5088504;28;20531;-72
2021/11/15 07:30:04;;;;;;;37.77;18.90;;;;;;;;;;5096924;28;20448;-72
2021/11/15 07:32:32;;;;;;;46.30;21.00;;;;;;;;;;5097398;28;20459;-75
2021/11/15 07:35:00;;;;;;;37.17;19.13;;;;;;;;;;5100461;28;20509;-72
2021/11/15 07:37:29;;;;;;;37.77;19.20;;;;;;;;;;5107564;28;20480;-72
2021/11/15 07:39:57;;;;;;;42.03;19.13;;;;;;;;;;5096775;28;20480;-72
2021/11/15 07:42:25;;;;;;;37.03;20.67;;;;;;;;;;5096043;28;20459;-72
2021/11/15 07:44:56;;;;;;;32.00;16.10;;;;;;;;;;5096428;28;20454;-73
2021/11/15 07:47:24;;;;;;;43.97;21.00;;;;;;;;;;5095034;28;20588;-72
2021/11/15 07:49:52;;;;;;;44.57;22.00;;;;;;;;;;5095257;28;20531;-72
2021/11/15 07:52:24;;;;;;;42.03;18.37;;;;;;;;;;5094114;28;20456;-72
2021/11/15 07:54:54;;;;;;;40.97;17.83;;;;;;;;;;5096537;28;20479;-72
2021/11/15 07:57:24;;;;;;;39.97;20.40;;;;;;;;;;5096167;28;20491;-72
2021/11/15 07:59:52;;;;;;;40.80;21.40;;;;;;;;;;5090800;28;20518;-72
2021/11/15 08:02:23;;;;;;;40.13;20.13;;;;;;;;;;5095857;28;20509;-71
2021/11/15 08:04:54;;;;;;;38.37;19.77;;;;;;;;;;5102754;28;20471;-71
2021/11/15 08:07:22;;;;;;;39.17;19.80;;;;;;;;;;5099715;28;20593;-72
2021/11/15 08:09:53;;;;;;;48.73;21.67;;;;;;;;;;5096187;28;20440;-71
2021/11/15 08:12:34;;;;;;;38.13;18.90;;;;;;;;;;5095813;28;20484;-71
2021/11/15 08:15:05;;;;;;;39.17;19.60;;;;;;;;;;5094879;28;20459;-71
2021/11/15 08:17:34;;;;;;;33.77;19.80;;;;;;;;;;5091628;27;20517;-72
2021/11/15 08:20:03;;;;;;;42.07;19.90;;;;;;;;;;5074488;28;20480;-72
2021/11/15 08:22:31;;;;;;;36.47;20.27;;;;;;;;;;5084118;28;20533;-71
2021/11/15 08:25:27;;;;;;;44.53;22.83;;;;;;;;;;5094032;28;20509;-72
2021/11/15 08:27:55;;;;;;;35.27;18.93;;;;;;;;;;5096401;28;20458;-72
2021/11/15 08:30:23;;;;;;;40.10;20.67;;;;;;;;;;5095887;28;20855;-72
2021/11/15 08:33:02;;;;;;;38.40;19.57;;;;;;;;;;5095567;28;20444;-72
2021/11/15 08:35:38;;;;;;;46.90;19.93;;;;;;;;;;5097606;28;20453;-72
2021/11/15 08:38:33;;;;;;;40.43;20.43;;;;;;;;;;5095473;28;20893;-72
2021/11/15 08:41:02;;;;;;;39.37;19.83;;;;;;;;;;5060897;28;20498;-71
2021/11/15 08:43:40;;;;;;;42.97;22.37;;;;;;;;;;5095689;28;20451;-72
2021/11/15 08:46:08;;;;;;;36.10;18.73;;;;;;;;;;5095198;28;20463;-72
2021/11/15 08:48:38;;;;;;;47.50;21.27;;;;;;;;;;5095461;28;20469;-72
2021/11/15 08:51:10;;;;;;;44.13;21.90;;;;;;;;;;5095616;28;20528;-71
2021/11/15 08:53:40;;;;;;;35.33;19.90;;;;;;;;;;5093327;28;20471;-72
2021/11/15 08:56:13;;;;;;;44.80;21.20;;;;;;;;;;5088857;27;20451;-73
2021/11/15 08:58:41;;;;;;;39.80;22.37;;;;;;;;;;5094650;28;20978;-73
2021/11/15 09:01:10;;;;;;;37.43;19.40;;;;;;;;;;5095131;28;20498;-72
2021/11/15 09:03:54;;;;;;;41.27;21.30;;;;;;;;;;5094555;28;20896;-73
2021/11/15 09:06:29;;;;;;;41.37;20.57;;;;;;;;;;5088911;28;20930;-72
2021/11/15 09:09:15;;;;;;;41.57;21.10;;;;;;;;;;5099369;27;20487;-72
2021/11/15 09:11:44;;;;;;;40.63;19.57;;;;;;;;;;5074758;28;20548;-72
2021/11/15 09:14:16;;;;;;;36.67;19.03;;;;;;;;;;5091620;28;20482;-72
2021/11/15 09:16:45;;;;;;;41.53;19.93;;;;;;;;;;5096115;28;20462;-72
2021/11/15 09:19:30;;;;;;;37.10;20.23;;;;;;;;;;5096727;28;20454;-73
2021/11/15 09:22:06;;;;;;;46.73;21.57;;;;;;;;;;5095916;28;20472;-71
2021/11/15 09:24:34;;;;;;;42.43;22.70;;;;;;;;;;5096849;28;20482;-71
2021/11/15 09:27:09;;;;;;;37.90;19.27;;;;;;;;;;5097402;28;20466;-71
2021/11/15 09:29:37;;;;;;;40.60;20.73;;;;;;;;;;5095995;28;20463;-72
2021/11/15 09:32:11;;;;;;;37.10;20.13;;;;;;;;;;5095854;28;20459;-74
2021/11/15 09:34:44;;;;;;;40.33;22.43;;;;;;;;;;5095359;28;20535;-73
2021/11/15 09:37:19;;;;;;;40.47;23.20;;;;;;;;;;5095752;28;20824;-73
2021/11/15 09:39:50;;;;;;;40.37;20.43;;;;;;;;;;5095892;28;20505;-73
2021/11/15 09:42:34;;;;;;;40.90;20.60;;;;;;;;;;5095740;28;20573;-73
2021/11/15 09:45:04;;;;;;;42.30;21.57;;;;;;;;;;5095822;28;20459;-74
2021/11/15 09:47:39;;;;;;;37.80;20.63;;;;;;;;;;5094383;28;20995;-73
2021/11/15 09:50:13;;;;;;;38.97;18.13;;;;;;;;;;5094059;28;20460;-73
2021/11/15 09:52:41;;;;;;;37.03;16.60;;;;;;;;;;5091756;28;20483;-73
2021/11/15 09:55:09;;;;;;;37.67;20.27;;;;;;;;;;5093588;28;20536;-73
2021/11/15 09:57:40;;;;;;;125.90;70.27;;;;;;;;;;5094093;28;20551;-73
2021/11/15 10:00:10;;;;;;;51.50;25.60;;;;;;;;;;5095449;28;20476;-73
2021/11/15 10:02:38;;;;;;;37.93;19.50;;;;;;;;;;5101084;28;20462;-73
2021/11/15 10:05:12;;;;;;;37.77;19.53;;;;;;;;;;5112862;27;20772;-73
2021/11/15 10:07:42;;;;;;;43.93;19.90;;;;;;;;;;5116018;27;20863;-72
2021/11/15 10:10:26;;;;;;;36.10;19.80;;;;;;;;;;5114336;27;20469;-72
2021/11/15 10:13:19;;;;;;;43.30;22.90;;;;;;;;;;5103430;28;20436;-71
2021/11/15 10:15:55;;;;;;;34.60;19.67;;;;;;;;;;5080896;28;20535;-72
2021/11/15 10:18:31;;;;;;;40.73;20.77;;;;;;;;;;5096376;28;20448;-73
2021/11/15 10:21:30;;;;;;;38.23;21.33;;;;;;;;;;5100370;28;20511;-72
2021/11/15 10:24:09;;;;;;;36.93;20.10;;;;;;;;;;5099825;28;20518;-72
2021/11/15 10:26:40;;;;;;;43.00;20.47;;;;;;;;;;5097933;28;20528;-72
2021/11/15 10:29:10;;;;;;;39.20;20.03;;;;;;;;;;5097061;28;20466;-72
2021/11/15 10:31:44;;;;;;;32.37;18.83;;;;;;;;;;5097045;28;20455;-72
2021/11/15 10:34:12;;;;;;;34.63;19.93;;;;;;;;;;5097834;28;20509;-72
2021/11/15 10:36:58;;;;;;;36.23;17.80;;;;;;;;;;5098701;28;20455;-71
2021/11/15 10:39:31;;;;;;;37.40;20.00;;;;;;;;;;5086968;28;20752;-71
2021/11/15 10:42:05;;;;;;;37.10;20.67;;;;;;;;;;5096737;27;20876;-73
2021/11/15 10:44:33;;;;;;;38.93;19.20;;;;;;;;;;5079611;28;20600;-71
2021/11/15 10:47:02;;;;;;;39.60;21.70;;;;;;;;;;5090860;28;20570;-73
2021/11/15 10:49:30;;;;;;;36.17;19.00;;;;;;;;;;5097605;28;20459;-72
2021/11/15 10:52:02;;;;;;;39.40;19.00;;;;;;;;;;5097263;28;20486;-72
2021/11/15 10:57:20;;;;;;;35.90;17.83;;;;;;;;;;5096873;28;20555;-72
2021/11/15 11:00:10;;;;;;;34.40;20.87;;;;;;;;;;5097228;28;20531;-72
2021/11/15 11:02:48;;;;;;;35.77;18.83;;;;;;;;;;5091680;28;20488;-72
2021/11/15 11:05:18;;;;;;;36.77;19.20;;;;;;;;;;5095333;28;20456;-72
2021/11/15 11:07:48;;;;;;;30.50;17.60;;;;;;;;;;5084941;28;20459;-72
2021/11/15 11:10:29;;;;;;;33.23;18.23;;;;;;;;;;5090650;28;20467;-72
2021/11/15 11:13:02;;;;;;;26.80;17.10;;;;;;;;;;5083245;28;20498;-72
2021/11/15 11:15:40;;;;;;;29.10;17.30;;;;;;;;;;5119495;27;20483;-71
2021/11/15 11:18:14;;;;;;;33.77;19.40;;;;;;;;;;5117180;27;20515;-73
2021/11/15 11:24:12;;;;;;;35.53;20.53;;;;;;;;;;5083283;27;20431;-74
2021/11/15 11:26:44;;;;;;;30.63;19.47;;;;;;;;;;5100563;27;20517;-72
2021/11/15 11:29:15;;;;;;;26.90;14.97;;;;;;;;;;5096812;28;20553;-73
2021/11/15 11:31:50;;;;;;;36.10;20.83;;;;;;;;;;5097308;28;20454;-73
2021/11/15 11:34:19;;;;;;;37.13;19.57;;;;;;;;;;5097947;28;20565;-73
2021/11/15 11:36:50;;;;;;;27.20;15.70;;;;;;;;;;5102991;28;20483;-72
2021/11/15 11:39:46;;;;;;;36.03;19.03;;;;;;;;;;5117655;27;20519;-73
2021/11/15 11:42:27;;;;;;;29.33;17.60;;;;;;;;;;5118200;27;20504;-72
2021/11/15 11:45:06;;;;;;;30.10;16.40;;;;;;;;;;5118653;27;20442;-73
2021/11/15 11:47:48;;;;;;;35.63;19.93;;;;;;;;;;5118377;27;20469;-72
2021/11/15 11:50:19;;;;;;;30.73;17.90;;;;;;;;;;5077160;28;20896;-72
2021/11/15 11:53:02;;;;;;;38.10;17.60;;;;;;;;;;5076257;28;20528;-72
2021/11/15 11:55:38;;;;;;;34.17;19.70;;;;;;;;;;5075695;28;20476;-73
2021/11/15 11:58:37;;;;;;;35.97;19.47;;;;;;;;;;5076625;28;20459;-72
2021/11/15 12:01:27;;;;;;;34.23;17.70;;;;;;;;;;5076866;28;20593;-71
2021/11/15 12:04:19;;;;;;;28.40;16.87;;;;;;;;;;5084230;28;20463;-72
2021/11/15 12:09:51;;;;;;;30.00;16.57;;;;;;;;;;5084524;28;20596;-72
2021/11/15 12:12:24;;;;;;;39.20;17.80;;;;;;;;;;5089792;28;20921;-73
2021/11/15 12:18:11;;;;;;;33.83;18.00;;;;;;;;;;5082279;28;20452;-72
2021/11/15 12:21:01;;;;;;;37.20;18.37;;;;;;;;;;5100988;28;20647;-72
2021/11/15 12:29:37;;;;;;;35.93;17.63;;;;;;;;;;5096182;28;20855;-73
2021/11/15 12:32:17;;;;;;;37.07;22.10;;;;;;;;;;5091047;28;20499;-71
2021/11/15 12:38:07;;;;;;;33.43;18.40;;;;;;;;;;5074857;28;20460;-73
2021/11/15 12:43:37;;;;;;;35.63;18.43;;;;;;;;;;5075734;28;20464;-72
2021/11/15 12:46:10;;;;;;;33.20;18.20;;;;;;;;;;5077602;28;20472;-72
2021/11/15 12:48:47;;;;;;;32.50;19.27;;;;;;;;;;5076575;28;20494;-72
2021/11/15 12:51:26;;;;;;;37.43;17.77;;;;;;;;;;5074999;28;20552;-71
2021/11/15 12:53:57;;;;;;;30.83;16.07;;;;;;;;;;5074970;28;20544;-73
2021/11/15 12:56:26;;;;;;;33.27;16.90;;;;;;;;;;5074808;28;20453;-73
2021/11/15 12:59:15;;;;;;;34.63;18.43;;;;;;;;;;5086690;28;20536;-73
2021/11/15 13:01:47;;;;;;;32.87;18.67;;;;;;;;;;5083128;28;20484;-72
2021/11/15 13:04:27;;;;;;;31.60;17.40;;;;;;;;;;5079245;28;20499;-74
2021/11/15 13:07:02;;;;;;;39.77;18.90;;;;;;;;;;5096887;28;20869;-72
2021/11/15 13:09:39;;;;;;;35.50;18.27;;;;;;;;;;5100430;28;20462;-72
2021/11/15 13:12:08;;;;;;;36.20;19.07;;;;;;;;;;5117187;27;20541;-73
2021/11/15 13:14:39;;;;;;;32.17;17.93;;;;;;;;;;5115258;27;20467;-73
2021/11/15 13:17:14;;;;;;;31.87;18.20;;;;;;;;;;5116503;27;20474;-73
2021/11/15 13:19:43;;;;;;;44.27;21.77;;;;;;;;;;5115066;27;20511;-72
2021/11/15 13:22:16;;;;;;;36.00;20.93;;;;;;;;;;5107812;28;20824;-73
2021/11/15 13:24:45;;;;;;;36.90;18.33;;;;;;;;;;5095410;28;20460;-72
2021/11/15 13:27:13;;;;;;;38.93;19.87;;;;;;;;;;5087276;28;20484;-72
2021/11/15 13:29:43;;;;;;;43.00;19.73;;;;;;;;;;5076638;28;20480;-73
2021/11/15 13:32:23;;;;;;;36.27;20.77;;;;;;;;;;5076666;28;20488;-74
2021/11/15 13:34:52;;;;;;;31.70;18.23;;;;;;;;;;5074947;28;21073;-72
2021/11/15 13:37:26;;;;;;;34.90;21.17;;;;;;;;;;5075709;28;20727;-74
2021/11/15 13:40:00;;;;;;;34.20;19.83;;;;;;;;;;5075795;28;20455;-72
2021/11/15 13:42:28;;;;;;;32.53;18.17;;;;;;;;;;5078906;28;20476;-72
2021/11/15 13:44:56;;;;;;;43.67;21.23;;;;;;;;;;5076147;28;20469;-73
2021/11/15 13:47:29;;;;;;;36.43;17.33;;;;;;;;;;5087233;28;20772;-72
2021/11/15 13:49:59;;;;;;;45.63;24.00;;;;;;;;;;5107061;27;20796;-72
2021/11/15 13:52:30;;;;;;;34.23;18.90;;;;;;;;;;5098243;28;20909;-72
2021/11/15 13:54:59;;;;;;;40.97;19.73;;;;;;;;;;5094670;28;20770;-72
2021/11/15 13:57:31;;;;;;;36.60;19.67;;;;;;;;;;5100778;28;20479;-74
2021/11/15 13:59:59;;;;;;;39.10;21.87;;;;;;;;;;5094045;28;20494;-74
2021/11/15 14:02:34;;;;;;;31.30;18.13;;;;;;;;;;5100189;28;20540;-76
2021/11/15 14:05:06;;;;;;;40.40;19.83;;;;;;;;;;5082762;28;20467;-73
2021/11/15 14:07:34;;;;;;;40.57;20.97;;;;;;;;;;5091376;28;20459;-73
2021/11/15 14:10:09;;;;;;;31.83;16.97;;;;;;;;;;5108896;27;20470;-73
2021/11/15 14:12:39;;;;;;;34.63;19.50;;;;;;;;;;5119320;27;20479;-73
2021/11/15 14:15:12;;;;;;;32.53;17.33;;;;;;;;;;5118869;27;20895;-73
2021/11/15 14:17:55;;;;;;;30.23;17.63;;;;;;;;;;5092470;27;20907;-73
2021/11/15 14:26:23;;;;;;;38.03;19.53;;;;;;;;;;5094398;28;20452;-73
2021/11/15 14:29:03;;;;;;;36.97;17.90;;;;;;;;;;5093766;28;20550;-73
2021/11/15 14:31:33;;;;;;;36.83;18.70;;;;;;;;;;5097086;28;20496;-73
2021/11/15 14:34:06;;;;;;;35.37;17.60;;;;;;;;;;5093230;28;20520;-74
2021/11/15 14:36:41;;;;;;;41.03;18.83;;;;;;;;;;5096647;27;20526;-73
2021/11/15 14:39:17;;;;;;;37.53;19.60;;;;;;;;;;5097913;28;20541;-73
2021/11/15 14:41:49;;;;;;;36.33;17.73;;;;;;;;;;5096266;28;20483;-73
2021/11/15 14:44:17;;;;;;;39.67;18.80;;;;;;;;;;5084415;28;20443;-72
2021/11/15 14:46:50;;;;;;;34.63;18.27;;;;;;;;;;5102559;28;20489;-73
2021/11/15 14:49:21;;;;;;;38.20;18.53;;;;;;;;;;5103578;27;20535;-73
2021/11/15 14:52:08;;;;;;;39.07;20.00;;;;;;;;;;5077525;28;20933;-72
2021/11/15 14:57:46;;;;;;;29.90;16.40;;;;;;;;;;5074419;28;20986;-74
2021/11/15 15:00:41;;;;;;;45.27;20.67;;;;;;;;;;5084319;28;20530;-71
2021/11/15 15:03:13;;;;;;;35.87;18.53;;;;;;;;;;5076531;28;20495;-73
2021/11/15 15:11:43;;;;;;;40.33;18.97;;;;;;;;;;5094545;28;20839;-74
2021/11/15 15:14:44;;;;;;;41.20;20.30;;;;;;;;;;5097098;28;20483;-73
2021/11/15 15:20:35;;;;;;;39.40;19.30;;;;;;;;;;5089713;28;20463;-73
2021/11/15 15:25:58;;;;;;;32.40;19.20;;;;;;;;;;5084928;28;20857;-72
2021/11/15 15:31:11;;;;;;;27.80;15.63;;;;;;;;;;5069236;28;20469;-74